createdAt,value
2022-10-04T00:00:51.112Z,100528.09
2022-10-04T00:03:26.151Z,100525.66
2022-10-04T00:05:57.946Z,100517.63
2022-10-04T00:08:31.585Z,100529.09
2022-10-04T00:11:06.283Z,100528.16
2022-10-04T00:13:36.011Z,100522.88
2022-10-04T00:16:03.902Z,100528.94
2022-10-04T00:18:38.703Z,100523.75
2022-10-04T00:21:08.712Z,100525.38
2022-10-04T00:23:47.600Z,100530.34
2022-10-04T00:27:03.053Z,100521.44
2022-10-04T00:29:33.291Z,100518.94
2022-10-04T00:32:27.037Z,100525.66
2022-10-04T00:34:56.284Z,100515.19
2022-10-04T00:37:27.090Z,100518.75
2022-10-04T00:40:02.176Z,100527.19
2022-10-04T00:42:58.687Z,100536.47
2022-10-04T00:45:34.160Z,100533.34
2022-10-04T00:48:19.917Z,100541.03
2022-10-04T00:50:54.007Z,100546.97
2022-10-04T00:53:40.317Z,100546.72
2022-10-04T00:56:12.362Z,100547.06
2022-10-04T00:59:02.487Z,100555.88
2022-10-04T01:01:35.196Z,100551.81
2022-10-04T01:04:06.080Z,100556.22
2022-10-04T01:06:36.487Z,100558.91
2022-10-04T01:09:09.521Z,100558.44
2022-10-04T01:11:42.524Z,100561.75
2022-10-04T01:14:19.342Z,100567.81
2022-10-04T01:16:47.696Z,100571.22
2022-10-04T01:19:30.652Z,100568.47
2022-10-04T01:22:10.127Z,100565.25
2022-10-04T01:24:39.795Z,100566.22
2022-10-04T01:27:32.394Z,100570.69
2022-10-04T01:30:00.888Z,100566.22
2022-10-04T01:32:28.527Z,100574.88
2022-10-04T01:34:57.144Z,100574.97
2022-10-04T01:37:24.882Z,100577.56
2022-10-04T01:39:54.246Z,100578.56
2022-10-04T01:42:27.099Z,100584.00
2022-10-04T01:44:59.950Z,100586.75
2022-10-04T01:47:33.848Z,100578.19
2022-10-04T01:50:07.617Z,100578.31
2022-10-04T01:52:41.366Z,100583.00
2022-10-04T01:55:15.900Z,100581.91
2022-10-04T01:57:49.299Z,100584.31
2022-10-04T02:00:17.524Z,100592.22
2022-10-04T02:02:52.242Z,100585.22
2022-10-04T02:05:28.672Z,100587.03
2022-10-04T02:08:01.995Z,100595.72
2022-10-04T02:10:34.443Z,100588.06
2022-10-04T02:13:05.672Z,100590.06
2022-10-04T02:15:37.141Z,100588.34
2022-10-04T02:18:10.675Z,100595.34
2022-10-04T02:20:40.413Z,100596.31
2022-10-04T02:23:10.482Z,100597.28
2022-10-04T02:25:40.016Z,100595.47
2022-10-04T02:28:11.113Z,100606.94
2022-10-04T02:30:41.316Z,100604.19
2022-10-04T02:33:10.965Z,100604.31
2022-10-04T02:35:45.392Z,100609.53
2022-10-04T02:38:19.242Z,100613.69
2022-10-04T02:40:56.309Z,100619.66
2022-10-04T02:43:29.007Z,100620.59
2022-10-04T02:46:05.779Z,100612.88
2022-10-04T02:48:40.764Z,100612.16
2022-10-04T02:51:20.274Z,100623.44
2022-10-04T02:54:02.955Z,100623.50
2022-10-04T02:56:37.060Z,100631.03
2022-10-04T02:59:06.413Z,100631.97
2022-10-04T03:01:51.517Z,100614.06
2022-10-04T03:04:22.033Z,100637.34
2022-10-04T03:06:51.004Z,100639.94
2022-10-04T03:09:20.941Z,100646.00
2022-10-04T03:11:51.357Z,100652.88
2022-10-04T03:14:21.925Z,100663.31
2022-10-04T03:16:54.151Z,100664.94
2022-10-04T03:19:24.062Z,100669.31
2022-10-04T03:21:53.720Z,100668.47
2022-10-04T03:24:28.425Z,100683.09
2022-10-04T03:27:01.374Z,100686.44
2022-10-04T03:29:32.578Z,100687.47
2022-10-04T03:32:02.868Z,100687.47
2022-10-04T03:34:35.029Z,100683.28
2022-10-04T03:37:03.316Z,100684.28
2022-10-04T03:39:33.298Z,100693.06
2022-10-04T03:42:07.846Z,100696.69
2022-10-04T03:44:36.251Z,100692.31
2022-10-04T03:47:10.074Z,100701.75
2022-10-04T03:49:39.123Z,100706.91
2022-10-04T03:52:15.651Z,100711.16
2022-10-04T03:54:43.924Z,100708.53
2022-10-04T03:57:13.499Z,100713.72
2022-10-04T03:59:41.552Z,100714.56
2022-10-04T04:02:14.098Z,100711.13
2022-10-04T04:04:47.824Z,100730.09
2022-10-04T04:07:20.531Z,100730.78
2022-10-04T04:09:53.001Z,100733.38
2022-10-04T04:12:26.453Z,100726.38
2022-10-04T04:14:55.030Z,100732.41
2022-10-04T04:17:40.629Z,100742.03
2022-10-04T04:20:25.284Z,100750.59
2022-10-04T04:23:03.978Z,100753.97
2022-10-04T04:25:33.967Z,100767.75
2022-10-04T04:28:13.526Z,100767.63
2022-10-04T04:30:47.080Z,100775.31
2022-10-04T04:33:24.775Z,100776.91
2022-10-04T04:35:56.200Z,100780.34
2022-10-04T04:38:25.477Z,100787.97
2022-10-04T04:40:53.825Z,100782.56
2022-10-04T04:43:26.875Z,100786.84
2022-10-04T04:46:22.114Z,100788.41
2022-10-04T04:48:44.907Z,100789.16
2022-10-04T04:51:19.309Z,100786.56
2022-10-04T04:53:48.303Z,100789.81
2022-10-04T04:56:18.972Z,100793.22
2022-10-04T04:58:51.371Z,100787.88
2022-10-04T05:01:24.161Z,100798.19
2022-10-04T05:04:02.848Z,100794.84
2022-10-04T05:06:32.469Z,100804.25
2022-10-04T05:09:00.511Z,100809.31
2022-10-04T05:11:31.406Z,100820.53
2022-10-04T05:14:03.750Z,100822.94
2022-10-04T05:16:40.667Z,100828.00
2022-10-04T05:19:14.447Z,100828.56
2022-10-04T05:21:45.330Z,100836.19
2022-10-04T05:24:20.258Z,100832.47
2022-10-04T05:26:50.854Z,100827.03
2022-10-04T05:29:23.801Z,100839.09
2022-10-04T05:32:01.125Z,100838.28
2022-10-04T05:34:36.007Z,100848.41
2022-10-04T05:37:25.131Z,100850.66
2022-10-04T05:40:04.804Z,100854.66
2022-10-04T05:42:39.800Z,100854.41
2022-10-04T05:45:18.509Z,100850.56
2022-10-04T05:47:50.259Z,100855.59
2022-10-04T05:50:19.614Z,100858.91
2022-10-04T05:52:50.558Z,100860.38
2022-10-04T05:55:28.956Z,100859.94
2022-10-04T05:58:18.183Z,100864.84
2022-10-04T06:01:06.652Z,100873.28
2022-10-04T06:03:49.369Z,100869.31
2022-10-04T06:06:22.823Z,100881.09
2022-10-04T06:09:06.353Z,100872.72
2022-10-04T06:11:46.881Z,100880.13
2022-10-04T06:14:46.812Z,100880.50
2022-10-04T06:17:28.254Z,100869.63
2022-10-04T06:20:25.344Z,100871.97
2022-10-04T06:22:58.830Z,100879.22
2022-10-04T06:25:32.788Z,100879.78
2022-10-04T06:28:13.746Z,100881.03
2022-10-04T06:30:58.883Z,100883.16
2022-10-04T06:33:42.936Z,100888.19
2022-10-04T06:36:42.064Z,100893.97
2022-10-04T06:39:28.363Z,100892.06
2022-10-04T06:42:33.803Z,100894.25
2022-10-04T06:45:27.875Z,100894.88
2022-10-04T06:48:28.628Z,100897.09
2022-10-04T06:51:09.091Z,100907.97
2022-10-04T06:53:50.166Z,100914.44
2022-10-04T06:56:33.443Z,100906.34
2022-10-04T06:59:42.567Z,100910.22
2022-10-04T07:02:14.819Z,100915.91
2022-10-04T07:05:07.679Z,100908.78
2022-10-04T07:07:40.590Z,100914.75
2022-10-04T07:10:30.193Z,100914.91
2022-10-04T07:13:30.690Z,100919.78
2022-10-04T07:16:04.479Z,100920.38
2022-10-04T07:18:44.430Z,100916.34
2022-10-04T07:21:16.692Z,100916.53
2022-10-04T07:23:51.815Z,100926.25
2022-10-04T07:26:28.843Z,100926.53
2022-10-04T07:29:00.374Z,100932.84
2022-10-04T07:31:30.988Z,100933.69
2022-10-04T07:34:01.962Z,100931.25
2022-10-04T07:36:40.236Z,100932.09
2022-10-04T07:39:14.731Z,100936.94
2022-10-04T07:41:49.556Z,100935.81
2022-10-04T07:44:26.285Z,100944.31
2022-10-04T07:46:57.961Z,100938.75
2022-10-04T07:49:27.612Z,100943.50
2022-10-04T07:52:26.604Z,100945.91
2022-10-04T07:55:06.331Z,100947.34
2022-10-04T07:57:46.353Z,100948.72
2022-10-04T08:00:18.072Z,100949.50
2022-10-04T08:03:03.984Z,100944.06
2022-10-04T08:05:37.599Z,100947.31
2022-10-04T08:08:22.204Z,100945.16
2022-10-04T08:11:12.807Z,100955.66
2022-10-04T08:13:52.183Z,100944.06
2022-10-04T08:16:34.512Z,100950.56
2022-10-04T08:19:18.792Z,100953.81
2022-10-04T08:21:55.543Z,100957.13
2022-10-04T08:24:31.250Z,100957.97
2022-10-04T08:27:18.601Z,100955.88
2022-10-04T08:30:03.624Z,100956.38
2022-10-04T08:32:49.639Z,100955.59
2022-10-04T08:35:35.202Z,100956.22
2022-10-04T08:38:33.775Z,100956.63
2022-10-04T08:41:35.604Z,100958.72
2022-10-04T08:44:17.307Z,100962.63
2022-10-04T08:47:23.275Z,100959.44
2022-10-04T08:50:35.717Z,100967.69
2022-10-04T08:53:46.745Z,100964.81
2022-10-04T08:56:24.834Z,100968.38
2022-10-04T08:59:37.237Z,100966.81
2022-10-04T09:02:32.453Z,100978.44
2022-10-04T09:05:18.165Z,100971.66
2022-10-04T09:08:13.151Z,100971.50
2022-10-04T09:11:02.090Z,100973.59
2022-10-04T09:13:40.331Z,100971.34
2022-10-04T09:16:18.859Z,100983.75
2022-10-04T09:19:13.348Z,100975.72
2022-10-04T09:22:01.159Z,100972.88
2022-10-04T09:25:05.785Z,100983.34
2022-10-04T09:27:55.025Z,100972.88
2022-10-04T09:30:39.990Z,100984.78
2022-10-04T09:33:52.039Z,100983.75
2022-10-04T09:36:42.887Z,100979.91
2022-10-04T09:39:43.901Z,100979.47
2022-10-04T09:42:38.956Z,100985.16
2022-10-04T09:45:31.200Z,100994.97
2022-10-04T09:48:20.023Z,100987.38
2022-10-04T09:51:19.625Z,100993.19
2022-10-04T09:54:03.488Z,100989.69
2022-10-04T09:56:58.100Z,100992.22
2022-10-04T10:00:08.524Z,100990.84
2022-10-04T10:03:02.602Z,100992.31
2022-10-04T10:05:48.888Z,100990.16
2022-10-04T10:08:28.106Z,100990.88
2022-10-04T10:11:04.899Z,100984.50
2022-10-04T10:14:00.821Z,100991.00
2022-10-04T10:16:42.591Z,100995.97
2022-10-04T10:19:38.609Z,100995.44
2022-10-04T10:22:28.328Z,100996.75
2022-10-04T10:25:18.395Z,101000.25
2022-10-04T10:28:22.015Z,100990.53
2022-10-04T10:31:08.554Z,101000.25
2022-10-04T10:34:00.672Z,100999.41
2022-10-04T10:36:43.354Z,101000.75
2022-10-04T10:39:44.826Z,100995.06
2022-10-04T10:42:37.147Z,100997.78
2022-10-04T10:45:19.429Z,101000.72
2022-10-04T10:47:54.404Z,101002.59
2022-10-04T10:50:43.650Z,101001.06
2022-10-04T10:53:25.513Z,100999.97
2022-10-04T10:56:34.098Z,100994.44
2022-10-04T10:59:33.244Z,101000.88
2022-10-04T11:02:47.548Z,101001.72
2022-10-04T11:05:58.682Z,101004.78
2022-10-04T11:08:50.285Z,101009.84
2022-10-04T11:11:44.458Z,101005.06
2022-10-04T11:14:47.657Z,101006.38
2022-10-04T11:17:32.650Z,101004.66
2022-10-04T11:20:41.045Z,101011.91
2022-10-04T11:24:11.449Z,101011.16
2022-10-04T11:26:56.816Z,101007.38
2022-10-04T11:29:47.778Z,101005.28
2022-10-04T11:32:44.158Z,101010.41
2022-10-04T11:35:55.927Z,101012.13
2022-10-04T11:38:42.963Z,101010.53
2022-10-04T11:41:17.747Z,101020.66
2022-10-04T11:44:22.860Z,101021.44
2022-10-04T11:46:57.035Z,101028.72
2022-10-04T11:49:49.289Z,101025.47
2022-10-04T11:52:55.590Z,101029.41
2022-10-04T11:55:58.124Z,101037.03
2022-10-04T11:58:35.728Z,101036.44
2022-10-04T12:01:39.785Z,101039.53
2022-10-04T12:04:52.437Z,101041.50
2022-10-04T12:07:33.703Z,101054.34
2022-10-04T12:10:19.730Z,101049.72
2022-10-04T12:13:13.928Z,101058.00
2022-10-04T12:16:15.890Z,101056.06
2022-10-04T12:19:03.801Z,101063.13
2022-10-04T12:21:41.679Z,101062.88
2022-10-04T12:24:21.135Z,101061.13
2022-10-04T12:27:16.012Z,101060.34
2022-10-04T12:30:21.000Z,101070.91
2022-10-04T12:33:10.788Z,101059.44
2022-10-04T12:36:01.665Z,101061.91
2022-10-04T12:38:46.223Z,101060.81
2022-10-04T12:41:27.468Z,101055.25
2022-10-04T12:44:05.960Z,101062.44
2022-10-04T12:46:43.554Z,101064.50
2022-10-04T12:49:21.839Z,101057.16
2022-10-04T12:51:58.307Z,101057.94
2022-10-04T12:54:42.790Z,101062.28
2022-10-04T12:57:33.403Z,101062.81
2022-10-04T13:00:13.301Z,101065.41
2022-10-04T13:03:02.152Z,101072.44
2022-10-04T13:05:36.340Z,101063.59
2022-10-04T13:08:34.827Z,101066.81
2022-10-04T13:11:37.187Z,101069.81
2022-10-04T13:14:33.347Z,101068.25
2022-10-04T13:17:29.613Z,101069.03
2022-10-04T13:20:25.280Z,101063.13
2022-10-04T13:23:03.952Z,101071.94
2022-10-04T13:26:05.035Z,101073.56
2022-10-04T13:28:43.800Z,101073.75
2022-10-04T13:31:22.171Z,101080.75
2022-10-04T13:33:59.914Z,101083.53
2022-10-04T13:36:47.452Z,101082.19
2022-10-04T13:39:36.681Z,101085.78
2022-10-04T13:42:26.893Z,101083.34
2022-10-04T13:45:24.657Z,101086.41
2022-10-04T13:48:13.799Z,101092.66
2022-10-04T13:50:58.230Z,101089.38
2022-10-04T13:53:41.392Z,101088.78
2022-10-04T13:56:30.629Z,101088.13
2022-10-04T13:59:07.136Z,101094.22
2022-10-04T14:01:52.373Z,101098.06
2022-10-04T14:04:40.368Z,101100.63
2022-10-04T14:07:34.631Z,101095.00
2022-10-04T14:10:20.269Z,101100.31
2022-10-04T14:13:21.274Z,101103.91
2022-10-04T14:16:24.506Z,101110.16
2022-10-04T14:19:22.382Z,101117.31
2022-10-04T14:22:28.513Z,101112.09
2022-10-04T14:25:29.344Z,101128.41
2022-10-04T14:28:37.597Z,101127.13
2022-10-04T14:31:37.045Z,101138.03
2022-10-04T14:34:33.767Z,101137.50
2022-10-04T14:37:24.536Z,101135.84
2022-10-04T14:40:15.111Z,101137.06
2022-10-04T14:43:13.541Z,101143.38
2022-10-04T14:45:58.433Z,101149.81
2022-10-04T14:48:44.117Z,101154.44
2022-10-04T14:51:44.614Z,101152.44
2022-10-04T14:54:25.557Z,101158.84
2022-10-04T14:57:04.091Z,101166.38
2022-10-04T14:59:53.883Z,101156.16
2022-10-04T15:02:43.718Z,101160.84
2022-10-04T15:05:35.029Z,101171.41
2022-10-04T15:08:43.401Z,101166.84
2022-10-04T15:11:14.781Z,101172.03
2022-10-04T15:13:52.053Z,101172.81
2022-10-04T15:16:31.449Z,101181.91
2022-10-04T15:19:04.429Z,101176.72
2022-10-04T15:21:53.423Z,101178.00
2022-10-04T15:24:27.752Z,101180.34
2022-10-04T15:27:19.240Z,101185.13
2022-10-04T15:29:55.224Z,101187.50
2022-10-04T15:32:35.764Z,101191.59
2022-10-04T15:35:22.493Z,101192.22
2022-10-04T15:37:58.366Z,101200.50
2022-10-04T15:41:00.558Z,101197.63
2022-10-04T15:43:34.489Z,101199.91
2022-10-04T15:46:28.276Z,101208.16
2022-10-04T15:49:15.961Z,101213.53
2022-10-04T15:52:01.237Z,101212.84
2022-10-04T15:55:12.246Z,101216.03
2022-10-04T15:58:08.285Z,101241.88
2022-10-04T16:00:48.746Z,101234.13
2022-10-04T16:03:30.827Z,101230.31
2022-10-04T16:06:04.497Z,101239.94
2022-10-04T16:09:10.435Z,101244.50
2022-10-04T16:11:57.987Z,101245.13
2022-10-04T16:15:10.445Z,101247.41
2022-10-04T16:17:45.959Z,101265.22
2022-10-04T16:20:39.868Z,101265.31
2022-10-04T16:23:30.227Z,101272.59
2022-10-04T16:25:59.221Z,101276.22
2022-10-04T16:29:01.068Z,101285.09
2022-10-04T16:31:49.694Z,101286.06
2022-10-04T16:34:44.983Z,101294.06
2022-10-04T16:37:29.608Z,101296.84
2022-10-04T16:40:01.574Z,101294.50
2022-10-04T16:42:39.072Z,101283.44
2022-10-04T16:45:45.483Z,101293.66
2022-10-04T16:48:37.415Z,101304.28
2022-10-04T16:51:21.698Z,101307.19
2022-10-04T16:53:53.367Z,101310.91
2022-10-04T16:56:21.092Z,101304.00
2022-10-04T16:58:55.637Z,101318.81
2022-10-04T17:01:57.380Z,101311.13
2022-10-04T17:04:52.275Z,101313.13
2022-10-04T17:07:28.364Z,101316.72
2022-10-04T17:10:02.600Z,101318.78
2022-10-04T17:12:42.780Z,101312.78
2022-10-04T17:15:42.423Z,101315.41
2022-10-04T17:18:29.983Z,101318.06
2022-10-04T17:21:03.143Z,101319.19
2022-10-04T17:23:59.261Z,101324.53
2022-10-04T17:26:38.388Z,101333.28
2022-10-04T17:29:31.839Z,101334.34
2022-10-04T17:32:07.456Z,101341.78
2022-10-04T17:34:51.687Z,101341.03
2022-10-04T17:37:34.375Z,101345.88
2022-10-04T17:40:27.179Z,101348.50
2022-10-04T17:43:00.667Z,101354.63
2022-10-04T17:45:50.918Z,101357.19
2022-10-04T17:48:23.316Z,101365.31
2022-10-04T17:51:00.130Z,101363.66
2022-10-04T17:53:31.777Z,101370.84
2022-10-04T17:56:01.208Z,101372.44
2022-10-04T17:58:40.929Z,101372.53
2022-10-04T18:01:13.346Z,101381.34
2022-10-04T18:03:45.310Z,101382.16
2022-10-04T18:06:25.964Z,101387.56
2022-10-04T18:08:59.242Z,101382.38
2022-10-04T18:11:35.142Z,101395.50
2022-10-04T18:14:06.710Z,101396.38
2022-10-04T18:16:49.247Z,101402.59
2022-10-04T18:19:40.830Z,101404.44
2022-10-04T18:22:14.117Z,101410.63
2022-10-04T18:24:45.363Z,101409.72
2022-10-04T18:27:20.635Z,101415.06
2022-10-04T18:29:58.474Z,101418.59
2022-10-04T18:32:34.425Z,101417.75
2022-10-04T18:35:18.713Z,101423.00
2022-10-04T18:37:46.347Z,101424.72
2022-10-04T18:40:18.793Z,101426.47
2022-10-04T18:42:51.501Z,101422.09
2022-10-04T18:45:22.270Z,101429.06
2022-10-04T18:47:50.601Z,101429.09
2022-10-04T18:50:35.086Z,101429.00
2022-10-04T18:53:37.051Z,101429.84
2022-10-04T18:56:08.379Z,101429.97
2022-10-04T18:58:58.652Z,101441.19
2022-10-04T19:01:40.402Z,101435.97
2022-10-04T19:04:14.632Z,101437.03
2022-10-04T19:06:47.303Z,101444.84
2022-10-04T19:09:26.866Z,101440.44
2022-10-04T19:12:00.329Z,101443.06
2022-10-04T19:14:36.498Z,101443.22
2022-10-04T19:17:12.522Z,101450.25
2022-10-04T19:19:46.426Z,101450.25
2022-10-04T19:22:24.685Z,101451.25
2022-10-04T19:25:31.303Z,101453.94
2022-10-04T19:28:07.510Z,101448.00
2022-10-04T19:31:06.431Z,101461.13
2022-10-04T19:33:42.089Z,101463.75
2022-10-04T19:36:24.964Z,101461.03
2022-10-04T19:39:12.342Z,101464.56
2022-10-04T19:41:51.920Z,101464.59
2022-10-04T19:44:52.584Z,101482.88
2022-10-04T19:47:36.296Z,101476.84
2022-10-04T19:50:14.411Z,101477.94
2022-10-04T19:52:51.637Z,101480.72
2022-10-04T19:55:29.548Z,101485.13
2022-10-04T19:58:06.689Z,101481.06
2022-10-04T20:00:36.250Z,101483.72
2022-10-04T20:03:10.655Z,101482.88
2022-10-04T20:05:44.081Z,101491.75
2022-10-04T20:08:13.099Z,101487.44
2022-10-04T20:10:41.920Z,101488.31
2022-10-04T20:13:18.644Z,101483.09
2022-10-04T20:15:49.660Z,101495.31
2022-10-04T20:18:35.979Z,101502.31
2022-10-04T20:21:08.204Z,101498.88
2022-10-04T20:23:50.642Z,101505.88
2022-10-04T20:26:39.881Z,101503.31
2022-10-04T20:29:07.842Z,101504.22
2022-10-04T20:31:55.622Z,101504.22
2022-10-04T20:34:31.978Z,101506.84
2022-10-04T20:37:00.222Z,101512.97
2022-10-04T20:39:58.197Z,101512.16
2022-10-04T20:42:39.057Z,101519.97
2022-10-04T20:45:22.438Z,101525.16
2022-10-04T20:47:53.690Z,101521.63
2022-10-04T20:50:30.223Z,101519.91
2022-10-04T20:53:01.119Z,101522.69
2022-10-04T20:55:31.551Z,101513.13
2022-10-04T20:58:02.355Z,101533.19
2022-10-04T21:00:33.430Z,101534.03
2022-10-04T21:03:15.532Z,101538.38
2022-10-04T21:05:43.886Z,101538.41
2022-10-04T21:08:21.988Z,101539.31
2022-10-04T21:11:08.969Z,101542.81
2022-10-04T21:13:57.629Z,101539.38
2022-10-04T21:16:47.334Z,101542.03
2022-10-04T21:19:49.397Z,101533.31
2022-10-04T21:22:39.075Z,101543.78
2022-10-04T21:25:38.860Z,101543.78
2022-10-04T21:28:34.599Z,101537.69
2022-10-04T21:31:03.530Z,101536.88
2022-10-04T21:33:33.048Z,101536.94
2022-10-04T21:36:02.402Z,101537.81
2022-10-04T21:38:30.264Z,101538.66
2022-10-04T21:40:57.826Z,101534.34
2022-10-04T21:43:27.173Z,101542.97
2022-10-04T21:45:55.044Z,101539.50
2022-10-04T21:48:22.854Z,101548.16
2022-10-04T21:50:52.623Z,101543.00
2022-10-04T21:53:22.313Z,101555.13
2022-10-04T21:55:50.290Z,101559.50
2022-10-04T21:58:17.904Z,101554.25
2022-10-04T22:00:45.726Z,101556.06
2022-10-04T22:03:14.664Z,101554.31
2022-10-04T22:05:42.876Z,101563.03
2022-10-04T22:08:10.436Z,101563.03
2022-10-04T22:10:39.440Z,101561.28
2022-10-04T22:13:07.240Z,101562.19
2022-10-04T22:15:35.814Z,101570.91
2022-10-04T22:18:03.809Z,101575.28
2022-10-04T22:20:31.778Z,101572.72
2022-10-04T22:23:01.068Z,101586.59
2022-10-04T22:25:28.764Z,101589.19
2022-10-04T22:28:00.395Z,101587.47
2022-10-04T22:30:29.646Z,101578.81
2022-10-04T22:33:00.826Z,101589.25
2022-10-04T22:35:30.707Z,101585.81
2022-10-04T22:37:59.975Z,101598.00
2022-10-04T22:40:28.965Z,101596.22
2022-10-04T22:42:58.717Z,101598.88
2022-10-04T22:45:29.507Z,101595.38
2022-10-04T22:48:01.192Z,101604.94
2022-10-04T22:50:31.927Z,101602.31
2022-10-04T22:53:05.331Z,101598.84
2022-10-04T22:55:33.005Z,101604.06
2022-10-04T22:58:03.642Z,101599.72
2022-10-04T23:00:31.774Z,101597.13
2022-10-04T23:02:59.662Z,101594.50
2022-10-04T23:05:28.087Z,101608.44
2022-10-04T23:07:57.691Z,101609.28
2022-10-04T23:10:25.733Z,101611.00
2022-10-04T23:12:53.981Z,101609.28
2022-10-04T23:15:23.129Z,101615.38
2022-10-04T23:17:54.471Z,101618.00
2022-10-04T23:20:22.790Z,101611.88
2022-10-04T23:22:52.898Z,101604.94
2022-10-04T23:25:26.682Z,101604.09
2022-10-04T23:27:56.689Z,101602.31
2022-10-04T23:30:25.749Z,101604.94
2022-10-04T23:32:58.058Z,101607.56
2022-10-04T23:35:30.303Z,101624.09
2022-10-04T23:37:58.403Z,101615.38
2022-10-04T23:40:26.286Z,101621.44
2022-10-04T23:42:56.915Z,101627.53
2022-10-04T23:45:26.932Z,101628.44
2022-10-04T23:47:57.110Z,101624.94
2022-10-04T23:50:27.454Z,101624.06
2022-10-04T23:52:57.457Z,101623.22
2022-10-04T23:55:29.799Z,101629.31
2022-10-04T23:57:59.684Z,101621.47
